Ship Status Report: callsign HP2344

sailwx.info

Track history (hours):
 
Tides and Currents Weather Stations Pressure Air Temp Water Temp Dewpoint Dewpoint Depression Visibility Wind Speed Wind Dir Waves Ship Positions

Callsign HP2344 (name unknown)

Last reported at 2018-Mar-14 21:58 UTC. Time now 2018-Jul-20 08:31 UTC.
Position N 16°50' W 062°20'.
Warning: this ship's position is months out of date.

Date/timePositionNaut miles runAvg speedWind from/ knotsBaromVisibWave heightAir tempDewpointWater temp
2018-Mar-14 21:58N 16°50' W 062°20'4 8.7
2018-Mar-14 21:30N 16°49' W 062°16'4 3.6
2018-Mar-14 20:30N 16°48' W 062°12'0 0.0
2018-Mar-14 19:00N 16°48' W 062°12'0 0.0
2018-Mar-14 18:30N 16°48' W 062°12'0 0.0
2018-Mar-14 18:00N 16°48' W 062°12'0 0.0
2018-Mar-14 15:29N 16°48' W 062°12'0 0.0
2018-Mar-14 14:30N 16°48' W 062°12'1 0.5
2018-Mar-14 12:30N 16°48' W 062°13'4 3.6
2018-Mar-14 11:30N 16°46' W 062°16'12 7.8
2018-Mar-14 10:00N 16°36' W 062°10'4 8.5
2018-Mar-14 09:30N 16°33' W 062°07'4 7.4
2018-Mar-14 09:00N 16°29' W 062°06'12 8.0
2018-Mar-14 07:30N 16°18' W 062°01'28 8.3
2018-Mar-14 04:05N 15°52' W 061°49'3 7.9
2018-Mar-14 03:46N 15°50' W 061°48'10 7.6
2018-Mar-14 02:30N 15°41' W 061°43'5 7.7
2018-Mar-14 01:51N 15°37' W 061°40'  
Track history (hours):
 
Tides and Currents Weather Stations Pressure Air Temp Water Temp Dewpoint Dewpoint Depression Visibility Wind Speed Wind Dir Waves Ship Positions

Callsign HP2344 (name unknown)

Last reported at 2018-Mar-14 21:58 UTC. Time now 2018-Jul-20 08:31 UTC.
Position N 16°50' W 062°20'.
Warning: this ship's position is months out of date.

Date/timePositionNaut miles runAvg speedWind from/ knotsBaromVisibWave heightAir tempDewpointWater temp
2018-Mar-14 21:58N 16°50' W 062°20'4 8.7
2018-Mar-14 21:30N 16°49' W 062°16'4 3.6
2018-Mar-14 20:30N 16°48' W 062°12'0 0.0
2018-Mar-14 19:00N 16°48' W 062°12'0 0.0
2018-Mar-14 18:30N 16°48' W 062°12'0 0.0
2018-Mar-14 18:00N 16°48' W 062°12'0 0.0
2018-Mar-14 15:29N 16°48' W 062°12'0 0.0
2018-Mar-14 14:30N 16°48' W 062°12'1 0.5
2018-Mar-14 12:30N 16°48' W 062°13'4 3.6
2018-Mar-14 11:30N 16°46' W 062°16'12 7.8
2018-Mar-14 10:00N 16°36' W 062°10'4 8.5
2018-Mar-14 09:30N 16°33' W 062°07'4 7.4
2018-Mar-14 09:00N 16°29' W 062°06'12 8.0
2018-Mar-14 07:30N 16°18' W 062°01'28 8.3
2018-Mar-14 04:05N 15°52' W 061°49'3 7.9
2018-Mar-14 03:46N 15°50' W 061°48'10 7.6
2018-Mar-14 02:30N 15°41' W 061°43'5 7.7
2018-Mar-14 01:51N 15°37' W 061°40'  

Dump ship's entire track history